In Rescue
 
Open Full Screen Window  High Contrast Mode
October 19, 2019 1:23 PM CDT
Weather Information
Wind Direction
  ---
Wind Speed
  00 kt (0 mph)
Wind Gust
  00 kt (0 mph)
Altimeter
29.72 in
Visibility
10 SM
Temperature
11° C
52° F
Dewpoint
10° C
50° F
Humidity
94%
1hr Rain Fall
00.01 in.
24hr Rain Fall
00.18 in.
Sky Condition
Overcast @ 7,000 ft
VFR

METAR KONA 191823Z AUTO 00000KT 10SM OVC070 11/10 A2972 RMK AO2 P0001

FAA Disclaimer: The data displayed is for advisory purposes only and is not to be used for flight planning or operations.